Time;durP1;ratioP1;P1;durP2;ratioP2;P2;SDS_P1;SDS_P2;PMS_P1;PMS_P2;Temp;Humidity;BMP_temperature;BMP_pressure;BME280_temperature;BME280_humidity;BME280_pressure;Samples;Min_cycle;Max_cycle;Signal;HPM_P1;HPM_P2
2022/07/28 00:01:13;;;;;;;3.07;1.90;;;15.70;99.90;;;;;;5063009;28;20209;-62
2022/07/28 00:03:47;;;;;;;2.93;2.00;;;15.70;99.90;;;;;;5061913;28;20707;-62
2022/07/28 00:06:16;;;;;;;2.17;1.80;;;15.70;99.90;;;;;;5058035;28;20200;-62
2022/07/28 00:08:45;;;;;;;1.97;1.77;;;15.70;99.90;;;;;;5056974;28;20710;-62
2022/07/28 00:11:13;;;;;;;2.67;1.80;;;15.70;99.90;;;;;;5065206;28;20200;-62
2022/07/28 00:13:42;;;;;;;2.17;1.87;;;15.60;99.90;;;;;;5059841;28;20188;-62
2022/07/28 00:16:11;;;;;;;4.37;1.90;;;15.60;99.90;;;;;;5069459;28;20197;-62
2022/07/28 00:18:40;;;;;;;5.33;1.93;;;15.60;99.90;;;;;;5061184;28;20208;-62
2022/07/28 00:21:10;;;;;;;2.07;1.80;;;15.60;99.90;;;;;;5069375;28;20269;-62
2022/07/28 00:23:38;;;;;;;4.20;1.97;;;15.60;99.90;;;;;;5061127;28;20273;-62
2022/07/28 00:26:09;;;;;;;4.10;1.90;;;15.60;99.90;;;;;;5064979;28;20207;-62
2022/07/28 00:28:37;;;;;;;8.40;2.13;;;15.60;99.90;;;;;;5097482;28;20186;-62
2022/07/28 00:31:06;;;;;;;3.27;2.13;;;15.60;99.90;;;;;;5062123;28;20287;-62
2022/07/28 00:33:40;;;;;;;2.30;2.00;;;15.60;99.90;;;;;;5066899;28;20215;-62
2022/07/28 00:36:11;;;;;;;3.50;2.10;;;15.60;99.90;;;;;;5059433;28;20211;-62
2022/07/28 00:38:40;;;;;;;3.20;2.27;;;15.60;99.90;;;;;;5060752;28;20286;-62
2022/07/28 00:41:13;;;;;;;2.40;2.20;;;15.60;99.90;;;;;;5065839;28;20188;-63
2022/07/28 00:43:43;;;;;;;2.43;1.90;;;15.50;99.90;;;;;;5061142;28;20223;-62
2022/07/28 00:46:12;;;;;;;3.57;2.20;;;15.50;99.90;;;;;;5068784;28;20185;-62
2022/07/28 00:48:44;;;;;;;2.87;1.93;;;15.50;99.90;;;;;;5055773;28;20694;-62
2022/07/28 00:51:16;;;;;;;1.93;1.73;;;15.50;99.90;;;;;;5065646;28;20199;-62
2022/07/28 00:53:45;;;;;;;3.57;2.17;;;15.50;99.90;;;;;;5099861;28;20317;-62
2022/07/28 00:56:14;;;;;;;2.40;2.10;;;15.50;99.90;;;;;;5065173;28;20259;-62
2022/07/28 00:58:43;;;;;;;3.07;2.10;;;15.50;99.90;;;;;;5060581;28;20265;-62
2022/07/28 01:01:14;;;;;;;3.60;1.90;;;15.50;99.90;;;;;;5058306;28;20539;-62
2022/07/28 01:03:45;;;;;;;3.03;1.93;;;15.50;99.90;;;;;;5076416;28;20211;-62
2022/07/28 01:06:29;;;;;;;3.73;1.97;;;15.60;99.90;;;;;;5065341;28;20207;-62
2022/07/28 01:09:07;;;;;;;3.43;1.80;;;15.60;99.90;;;;;;5057628;28;20723;-62
2022/07/28 01:11:52;;;;;;;2.10;1.90;;;15.50;99.90;;;;;;5084460;28;20188;-62
2022/07/28 01:14:28;;;;;;;2.30;1.87;;;15.50;99.90;;;;;;5067396;28;20196;-62
2022/07/28 01:17:02;;;;;;;5.43;1.93;;;15.50;99.90;;;;;;5055102;28;20597;-62
2022/07/28 01:19:39;;;;;;;5.50;2.10;;;15.50;99.90;;;;;;5064794;28;20201;-62
2022/07/28 01:22:12;;;;;;;3.03;2.00;;;15.50;99.90;;;;;;5064687;28;20256;-62
2022/07/28 01:24:49;;;;;;;2.90;2.03;;;15.50;99.90;;;;;;5060260;28;20298;-62
2022/07/28 01:27:43;;;;;;;2.23;1.90;;;15.50;99.90;;;;;;5067828;28;20345;-62
2022/07/28 01:30:35;;;;;;;10.57;2.00;;;15.50;99.90;;;;;;5072831;28;20272;-62
2022/07/28 01:33:12;;;;;;;3.50;2.10;;;15.50;99.90;;;;;;5070621;28;20230;-62
2022/07/28 01:35:45;;;;;;;2.67;2.00;;;15.50;99.90;;;;;;5066779;28;20192;-62
2022/07/28 01:38:16;;;;;;;4.50;1.87;;;15.40;99.90;;;;;;5072254;28;20193;-62
2022/07/28 01:40:47;;;;;;;3.37;1.90;;;15.40;99.90;;;;;;5069410;28;20224;-62
2022/07/28 01:43:22;;;;;;;4.23;2.00;;;15.40;99.90;;;;;;5060678;28;20200;-62
2022/07/28 01:45:54;;;;;;;2.97;2.10;;;15.30;99.90;;;;;;5064381;28;21740;-62
2022/07/28 01:48:24;;;;;;;2.33;2.13;;;15.30;99.90;;;;;;5062241;28;20204;-62
2022/07/28 01:50:55;;;;;;;2.10;2.00;;;15.30;99.90;;;;;;5063726;28;20626;-62
2022/07/28 01:53:26;;;;;;;4.10;1.63;;;15.30;99.90;;;;;;5067883;28;20287;-62
2022/07/28 01:55:56;;;;;;;4.70;1.80;;;15.30;99.90;;;;;;5065219;28;20192;-62
2022/07/28 01:58:27;;;;;;;3.50;2.00;;;15.30;99.90;;;;;;5079560;28;20273;-62
2022/07/28 02:00:59;;;;;;;3.90;2.10;;;15.30;99.90;;;;;;5062327;28;20199;-62
2022/07/28 02:03:30;;;;;;;2.20;2.00;;;15.30;99.90;;;;;;5060127;28;20692;-62
2022/07/28 02:06:01;;;;;;;6.23;2.30;;;15.30;99.90;;;;;;5085710;28;20204;-62
2022/07/28 02:08:33;;;;;;;5.43;2.17;;;15.20;99.90;;;;;;5060352;28;20236;-62
2022/07/28 02:13:50;;;;;;;2.33;2.13;;;15.20;99.90;;;;;;5067297;28;20703;-62
2022/07/28 02:16:22;;;;;;;4.57;2.30;;;15.10;99.90;;;;;;5069467;28;20190;-62
2022/07/28 02:18:53;;;;;;;2.30;2.10;;;15.10;99.90;;;;;;5066189;28;20203;-62
2022/07/28 02:21:23;;;;;;;2.67;1.93;;;15.10;99.90;;;;;;5063603;28;20290;-62
2022/07/28 02:23:54;;;;;;;2.20;2.10;;;15.10;99.90;;;;;;5068356;28;20648;-62
2022/07/28 02:26:27;;;;;;;2.30;1.90;;;15.00;99.90;;;;;;5064536;28;20785;-62
2022/07/28 02:28:58;;;;;;;2.27;1.70;;;15.10;99.90;;;;;;5064193;28;20236;-62
2022/07/28 02:31:29;;;;;;;1.90;1.80;;;15.00;99.90;;;;;;5081046;28;20192;-62
2022/07/28 02:34:02;;;;;;;5.50;2.07;;;15.00;99.90;;;;;;5068034;28;20209;-62
2022/07/28 02:36:39;;;;;;;2.57;2.37;;;15.00;99.90;;;;;;5063553;28;20195;-62
2022/07/28 02:39:16;;;;;;;1.47;1.47;;;15.00;99.90;;;;;;5066261;28;20205;-62
2022/07/28 02:41:47;;;;;;;5.67;1.90;;;15.00;99.90;;;;;;5063576;28;20198;-62
2022/07/28 02:44:20;;;;;;;2.10;2.00;;;14.90;99.90;;;;;;5065413;28;20218;-62
2022/07/28 02:46:53;;;;;;;3.10;1.80;;;14.90;99.90;;;;;;5058718;28;20278;-62
2022/07/28 02:49:25;;;;;;;2.27;1.90;;;14.80;99.90;;;;;;5060179;28;20663;-62
2022/07/28 02:51:55;;;;;;;2.93;1.80;;;14.80;99.90;;;;;;5068445;28;20226;-62
2022/07/28 02:54:24;;;;;;;1.97;1.87;;;14.80;99.90;;;;;;5065300;28;20231;-62
2022/07/28 02:56:54;;;;;;;3.67;1.83;;;14.70;99.90;;;;;;5063536;28;20234;-62
2022/07/28 02:59:24;;;;;;;3.50;1.90;;;14.70;99.90;;;;;;5064951;28;20215;-62
2022/07/28 03:01:54;;;;;;;4.60;2.37;;;14.70;99.90;;;;;;5064968;28;20266;-62
2022/07/28 03:07:07;;;;;;;3.13;2.00;;;14.60;99.90;;;;;;5066682;28;20243;-62
2022/07/28 03:09:40;;;;;;;1.93;1.87;;;14.60;99.90;;;;;;5067620;28;20220;-62
2022/07/28 03:12:08;;;;;;;3.37;2.10;;;14.50;99.90;;;;;;5061314;28;20664;-62
2022/07/28 03:14:38;;;;;;;3.27;2.10;;;14.50;99.90;;;;;;5067831;28;20203;-62
2022/07/28 03:17:08;;;;;;;3.87;1.77;;;14.50;99.90;;;;;;5062579;28;20196;-62
2022/07/28 03:19:37;;;;;;;3.07;2.10;;;14.50;99.90;;;;;;5068211;28;20211;-62
2022/07/28 03:22:06;;;;;;;5.53;2.47;;;14.50;99.90;;;;;;5060711;28;20203;-62
2022/07/28 03:24:40;;;;;;;2.50;2.00;;;14.50;99.90;;;;;;5068571;28;20200;-62
2022/07/28 03:27:15;;;;;;;3.27;2.30;;;14.50;99.90;;;;;;5065650;28;20200;-62
2022/07/28 03:29:46;;;;;;;2.13;2.00;;;14.50;99.90;;;;;;5060413;28;20188;-62
2022/07/28 03:32:19;;;;;;;2.87;2.10;;;14.50;99.90;;;;;;5060347;28;20291;-62
2022/07/28 03:34:48;;;;;;;2.80;2.00;;;14.40;99.90;;;;;;5068679;28;20574;-63
2022/07/28 03:37:22;;;;;;;4.97;2.30;;;14.40;99.90;;;;;;5069753;28;20277;-62
2022/07/28 03:39:54;;;;;;;1.90;1.80;;;14.40;99.90;;;;;;5069275;28;20199;-62
2022/07/28 03:42:24;;;;;;;2.40;2.17;;;14.40;99.90;;;;;;5062916;28;20270;-62
2022/07/28 03:44:53;;;;;;;1.97;1.87;;;14.30;99.90;;;;;;5069372;28;20196;-62
2022/07/28 03:47:24;;;;;;;2.93;2.00;;;14.30;99.90;;;;;;5059852;28;20664;-62
2022/07/28 03:49:52;;;;;;;2.43;2.10;;;14.20;99.90;;;;;;5066240;28;20224;-62
2022/07/28 03:52:20;;;;;;;3.60;2.00;;;14.20;99.90;;;;;;5097004;28;20275;-62
2022/07/28 03:54:53;;;;;;;3.63;1.97;;;14.20;99.90;;;;;;5060893;28;20212;-62
2022/07/28 03:57:23;;;;;;;3.30;2.13;;;14.10;99.90;;;;;;5065987;28;20227;-62
2022/07/28 03:59:51;;;;;;;2.50;2.10;;;14.10;99.90;;;;;;5063428;28;20196;-62
2022/07/28 04:02:20;;;;;;;2.77;2.00;;;14.10;99.90;;;;;;5063607;28;20230;-62
2022/07/28 04:05:28;;;;;;;3.33;2.00;;;14.10;99.90;;;;;;5060365;28;20258;-62
2022/07/28 04:08:05;;;;;;;4.43;2.10;;;14.00;99.90;;;;;;5061546;28;20238;-62
2022/07/28 04:10:34;;;;;;;5.03;2.30;;;14.00;99.90;;;;;;5073190;28;20701;-62
2022/07/28 04:13:03;;;;;;;3.77;1.90;;;13.90;99.90;;;;;;5069557;28;20184;-62
2022/07/28 04:15:32;;;;;;;2.97;2.27;;;13.90;99.90;;;;;;5062531;28;20290;-62
2022/07/28 04:18:00;;;;;;;9.33;2.27;;;13.90;99.90;;;;;;5057786;28;20720;-62
2022/07/28 04:20:30;;;;;;;2.03;1.90;;;13.80;99.90;;;;;;5065411;28;20194;-62
2022/07/28 04:22:58;;;;;;;3.93;2.23;;;13.80;99.90;;;;;;5066613;28;20196;-62
2022/07/28 04:25:27;;;;;;;3.20;2.17;;;13.80;99.90;;;;;;5090970;28;20185;-62
2022/07/28 04:27:56;;;;;;;2.70;2.20;;;13.80;99.90;;;;;;5068058;28;20238;-63
2022/07/28 04:30:26;;;;;;;3.23;2.17;;;13.80;99.90;;;;;;5060709;28;20196;-62
2022/07/28 04:32:55;;;;;;;4.00;2.30;;;13.70;99.90;;;;;;5067231;28;20230;-62
2022/07/28 04:35:26;;;;;;;3.80;2.07;;;13.70;99.90;;;;;;5069219;28;20242;-62
2022/07/28 04:37:57;;;;;;;7.00;2.47;;;13.70;99.90;;;;;;5064048;28;20200;-62
2022/07/28 04:40:26;;;;;;;6.17;2.50;;;13.70;99.90;;;;;;5070113;28;20677;-62
2022/07/28 04:42:55;;;;;;;4.33;2.10;;;13.70;99.90;;;;;;5058494;28;20292;-62
2022/07/28 04:45:23;;;;;;;4.13;2.20;;;13.70;99.90;;;;;;5068339;28;20192;-62
2022/07/28 04:47:52;;;;;;;3.37;2.20;;;13.70;99.90;;;;;;5067476;28;20205;-62
2022/07/28 04:50:20;;;;;;;7.77;2.93;;;13.70;99.90;;;;;;5068257;28;20200;-62
2022/07/28 04:52:51;;;;;;;3.13;2.50;;;13.70;99.90;;;;;;5064006;28;20280;-62
2022/07/28 04:55:21;;;;;;;2.87;2.30;;;13.70;99.90;;;;;;5094815;28;20193;-62
2022/07/28 04:57:49;;;;;;;6.60;2.47;;;13.70;99.90;;;;;;5065870;28;20612;-62
2022/07/28 05:00:18;;;;;;;4.27;2.40;;;13.70;99.90;;;;;;5067620;28;20205;-62
2022/07/28 05:02:50;;;;;;;7.20;2.40;;;13.70;99.90;;;;;;5061887;28;20785;-62
2022/07/28 05:05:18;;;;;;;4.40;2.60;;;13.70;99.90;;;;;;5066537;28;20215;-62
2022/07/28 05:07:46;;;;;;;4.70;2.50;;;13.70;99.90;;;;;;5067976;28;20334;-62
2022/07/28 05:10:15;;;;;;;2.53;2.33;;;13.70;99.90;;;;;;5074468;28;20693;-62
2022/07/28 05:12:46;;;;;;;4.23;2.63;;;13.70;99.90;;;;;;5068222;28;20183;-62
2022/07/28 05:15:14;;;;;;;6.17;2.30;;;13.80;99.90;;;;;;5062420;28;20235;-62
2022/07/28 05:17:43;;;;;;;8.53;2.80;;;13.80;99.90;;;;;;5063858;28;20254;-62
2022/07/28 05:20:13;;;;;;;7.67;2.83;;;13.80;99.90;;;;;;5068556;28;20276;-62
2022/07/28 05:22:42;;;;;;;5.50;2.67;;;13.90;99.90;;;;;;5065661;28;20271;-62
2022/07/28 05:25:18;;;;;;;4.60;2.40;;;14.20;99.90;;;;;;5069850;28;20560;-62
2022/07/28 05:27:49;;;;;;;4.87;2.37;;;14.30;99.90;;;;;;5061278;28;20291;-62
2022/07/28 05:30:18;;;;;;;3.27;2.60;;;14.50;99.90;;;;;;5064811;28;20584;-62
2022/07/28 05:32:47;;;;;;;5.27;2.63;;;14.70;99.90;;;;;;5073000;28;20196;-62
2022/07/28 05:35:16;;;;;;;3.93;2.40;;;14.80;99.90;;;;;;5063177;28;20655;-62
2022/07/28 05:37:44;;;;;;;2.90;2.70;;;15.00;99.90;;;;;;5096809;28;20184;-62
2022/07/28 05:40:14;;;;;;;2.57;2.37;;;15.10;99.90;;;;;;5062769;28;20197;-62
2022/07/28 05:42:43;;;;;;;5.23;2.43;;;15.30;99.90;;;;;;5062899;28;20695;-62
2022/07/28 05:45:13;;;;;;;2.33;2.13;;;15.40;99.90;;;;;;5073299;28;20223;-62
2022/07/28 05:47:46;;;;;;;3.97;2.40;;;15.60;99.90;;;;;;5074022;28;20308;-62
2022/07/28 05:50:15;;;;;;;2.17;1.93;;;15.80;99.90;;;;;;5066806;28;20682;-62
2022/07/28 05:52:44;;;;;;;2.77;2.10;;;16.00;99.90;;;;;;5057728;28;20204;-62
2022/07/28 05:55:14;;;;;;;2.43;2.20;;;16.20;99.90;;;;;;5068610;28;20186;-62
2022/07/28 05:57:43;;;;;;;2.70;2.37;;;16.30;99.90;;;;;;5059932;28;20271;-63
2022/07/28 06:00:15;;;;;;;4.17;2.20;;;16.50;99.90;;;;;;5069622;28;20206;-62
2022/07/28 06:02:46;;;;;;;4.90;2.10;;;16.80;99.90;;;;;;5069561;28;20298;-62
2022/07/28 06:05:15;;;;;;;2.57;2.37;;;17.20;99.90;;;;;;5062510;28;20255;-62
2022/07/28 06:07:44;;;;;;;3.87;2.20;;;17.50;99.90;;;;;;5058674;28;20271;-62
2022/07/28 06:10:14;;;;;;;3.03;2.00;;;17.60;99.90;;;;;;5053602;28;20226;-62
2022/07/28 06:12:44;;;;;;;3.50;2.27;;;17.80;99.90;;;;;;5069051;28;20216;-62
2022/07/28 06:15:14;;;;;;;3.73;2.23;;;17.80;99.90;;;;;;5064386;28;20223;-62
2022/07/28 06:17:43;;;;;;;4.17;2.20;;;17.90;99.90;;;;;;5069877;28;20254;-62
2022/07/28 06:20:12;;;;;;;2.20;2.00;;;17.60;99.90;;;;;;5092549;28;20275;-62
2022/07/28 06:22:42;;;;;;;4.70;2.20;;;17.50;99.90;;;;;;5068092;28;20218;-62
2022/07/28 06:25:15;;;;;;;1.83;1.73;;;17.40;99.90;;;;;;5064314;28;20656;-62
2022/07/28 06:27:45;;;;;;;4.00;2.37;;;17.30;99.90;;;;;;5070710;28;20246;-62
2022/07/28 06:30:15;;;;;;;7.33;2.03;;;17.30;99.90;;;;;;5064834;28;20202;-62
2022/07/28 06:32:44;;;;;;;4.83;2.20;;;17.30;99.90;;;;;;5065207;28;20278;-62
2022/07/28 06:35:15;;;;;;;5.07;2.30;;;17.40;99.90;;;;;;5065749;28;20608;-62
2022/07/28 06:37:44;;;;;;;2.53;1.87;;;17.40;99.90;;;;;;5083772;28;20241;-62
2022/07/28 06:40:13;;;;;;;4.47;2.30;;;17.40;99.90;;;;;;5068215;28;20192;-62
2022/07/28 06:42:42;;;;;;;4.50;2.40;;;17.40;99.90;;;;;;5063789;28;20659;-62
2022/07/28 06:45:13;;;;;;;3.77;2.23;;;17.30;99.90;;;;;;5062211;28;20196;-62
2022/07/28 06:47:50;;;;;;;10.90;2.80;;;17.40;99.90;;;;;;5060850;28;20212;-62
2022/07/28 06:50:19;;;;;;;7.37;2.50;;;17.40;99.90;;;;;;5062167;28;20283;-62
2022/07/28 06:52:55;;;;;;;4.23;2.30;;;17.30;99.90;;;;;;5058983;28;20266;-62
2022/07/28 06:55:23;;;;;;;2.60;2.27;;;17.30;99.90;;;;;;5056711;28;20197;-62
2022/07/28 06:57:53;;;;;;;3.17;2.03;;;17.30;99.90;;;;;;5065688;28;20277;-62
2022/07/28 07:00:21;;;;;;;3.67;2.33;;;17.20;99.90;;;;;;5044853;28;20656;-62
2022/07/28 07:02:51;;;;;;;4.57;2.17;;;17.20;99.90;;;;;;5066011;28;20211;-62
2022/07/28 07:05:20;;;;;;;3.30;2.50;;;17.30;99.90;;;;;;5058710;28;20297;-62
2022/07/28 07:07:48;;;;;;;3.73;2.20;;;17.60;99.90;;;;;;5071901;28;20265;-62
2022/07/28 07:10:16;;;;;;;3.53;2.00;;;17.80;99.90;;;;;;5064396;28;20283;-62
2022/07/28 07:12:45;;;;;;;2.23;2.00;;;18.10;99.90;;;;;;5062525;28;20200;-62
2022/07/28 07:15:13;;;;;;;4.50;2.27;;;18.50;99.90;;;;;;5054122;28;20745;-62
2022/07/28 07:17:41;;;;;;;4.07;2.00;;;18.60;99.90;;;;;;5075072;28;20198;-63
2022/07/28 07:20:13;;;;;;;2.77;2.40;;;18.70;99.90;;;;;;5063866;28;20223;-63
2022/07/28 07:22:45;;;;;;;3.37;2.20;;;18.80;99.90;;;;;;5059835;28;20279;-62
2022/07/28 07:25:16;;;;;;;5.17;2.30;;;18.90;99.90;;;;;;5066082;28;20752;-62
2022/07/28 07:27:47;;;;;;;4.37;2.20;;;19.10;99.90;;;;;;5056467;28;20208;-62
2022/07/28 07:30:16;;;;;;;5.27;2.60;;;19.20;99.90;;;;;;5057712;28;20193;-62
2022/07/28 07:32:44;;;;;;;3.60;2.37;;;19.70;99.90;;;;;;5065899;28;20192;-63
2022/07/28 07:35:14;;;;;;;5.43;2.30;;;20.00;99.90;;;;;;5069891;28;20291;-63
2022/07/28 07:37:43;;;;;;;3.37;1.83;;;20.30;99.90;;;;;;5064811;28;20276;-62
2022/07/28 07:40:11;;;;;;;3.80;2.07;;;20.70;99.90;;;;;;5056441;28;20201;-63
2022/07/28 07:42:39;;;;;;;2.93;2.00;;;21.10;99.90;;;;;;5054752;28;20782;-62
2022/07/28 07:45:09;;;;;;;7.73;2.20;;;21.30;99.90;;;;;;5054075;28;20246;-63
2022/07/28 07:47:37;;;;;;;2.60;1.80;;;21.30;99.90;;;;;;5056389;28;20225;-62
2022/07/28 07:50:06;;;;;;;5.20;1.93;;;21.50;99.90;;;;;;5067164;28;20287;-63
2022/07/28 07:52:36;;;;;;;4.43;2.10;;;21.70;99.90;;;;;;5058717;28;20649;-63
2022/07/28 07:55:05;;;;;;;3.37;2.17;;;22.20;99.90;;;;;;5068180;28;20214;-63
2022/07/28 07:57:34;;;;;;;3.40;1.93;;;22.30;99.90;;;;;;5061763;28;20192;-63
2022/07/28 08:00:02;;;;;;;5.40;1.80;;;22.40;99.90;;;;;;5068525;28;20199;-63
2022/07/28 08:02:31;;;;;;;5.10;2.00;;;22.70;99.90;;;;;;5061409;28;20232;-63
2022/07/28 08:04:59;;;;;;;3.17;2.07;;;23.00;99.90;;;;;;5060848;28;20678;-63
2022/07/28 08:07:28;;;;;;;5.17;1.97;;;23.20;99.90;;;;;;5063712;28;20237;-63
2022/07/28 08:09:58;;;;;;;3.75;2.00;;;23.50;99.90;;;;;;5063204;28;20283;-63
2022/07/28 08:12:26;;;;;;;3.38;1.90;;;23.70;99.90;;;;;;5065382;28;20200;-63
2022/07/28 08:14:55;;;;;;;2.63;1.75;;;24.10;99.90;;;;;;5064968;28;20262;-63
2022/07/28 08:17:24;;;;;;;2.35;1.70;;;24.30;99.90;;;;;;5058916;28;20201;-63
2022/07/28 08:19:53;;;;;;;2.40;1.85;;;24.20;99.90;;;;;;5056783;28;20198;-63
2022/07/28 08:22:21;;;;;;;3.40;2.10;;;23.80;99.90;;;;;;5070165;28;20202;-63
2022/07/28 08:24:50;;;;;;;6.30;1.90;;;23.70;99.90;;;;;;5067248;28;20196;-63
2022/07/28 08:27:19;;;;;;;1.92;1.77;;;24.00;99.90;;;;;;5065778;28;20281;-63
2022/07/28 08:29:48;;;;;;;9.60;2.28;;;24.70;99.90;;;;;;5059562;28;20222;-63
2022/07/28 08:32:16;;;;;;;6.38;2.00;;;24.90;99.90;;;;;;5079891;28;20217;-63
2022/07/28 08:34:44;;;;;;;1.80;1.70;;;25.00;99.90;;;;;;5059944;28;20213;-63
2022/07/28 08:37:12;;;;;;;5.75;2.13;;;25.00;99.90;;;;;;5058303;28;20201;-63
2022/07/28 08:39:41;;;;;;;2.22;1.65;;;25.40;99.90;;;;;;5056702;28;20293;-63
2022/07/28 08:42:15;;;;;;;3.70;2.10;;;25.60;99.90;;;;;;5066685;28;20231;-63
2022/07/28 08:44:51;;;;;;;1.73;1.63;;;25.10;99.90;;;;;;5061954;28;20223;-63
2022/07/28 08:47:20;;;;;;;3.70;2.08;;;24.90;99.90;;;;;;5064411;28;20277;-63
2022/07/28 08:49:50;;;;;;;2.15;1.65;;;24.70;99.90;;;;;;5062457;28;20275;-63
2022/07/28 08:52:20;;;;;;;4.35;1.75;;;25.00;99.90;;;;;;5063836;28;20210;-63
2022/07/28 08:54:50;;;;;;;5.65;1.80;;;25.50;99.90;;;;;;5061180;28;20286;-63
2022/07/28 08:57:26;;;;;;;5.30;1.70;;;25.30;99.90;;;;;;5041926;28;21052;-63
2022/07/28 08:59:56;;;;;;;4.35;1.65;;;24.80;99.90;;;;;;5062054;28;20601;-62
2022/07/28 09:02:26;;;;;;;5.43;2.13;;;24.50;99.90;;;;;;5059706;28;20332;-63
2022/07/28 09:04:55;;;;;;;2.23;1.63;;;24.50;99.90;;;;;;5060676;28;20262;-63
2022/07/28 09:07:24;;;;;;;4.87;1.60;;;24.70;99.90;;;;;;5056541;28;20228;-63
2022/07/28 09:09:53;;;;;;;3.67;1.77;;;24.50;99.90;;;;;;5060644;28;20231;-63
2022/07/28 09:12:30;;;;;;;6.10;1.90;;;24.40;99.90;;;;;;5074483;28;20207;-63
2022/07/28 09:15:02;;;;;;;3.43;1.87;;;24.20;99.90;;;;;;5059933;28;20199;-63
2022/07/28 09:17:32;;;;;;;4.20;1.87;;;23.90;99.90;;;;;;5059531;28;20230;-62
2022/07/28 09:20:01;;;;;;;2.20;1.97;;;23.60;99.90;;;;;;5064871;28;20275;-62
2022/07/28 09:22:35;;;;;;;3.37;1.77;;;23.40;99.90;;;;;;5063422;28;20660;-62
2022/07/28 09:25:04;;;;;;;4.57;2.03;;;23.40;99.90;;;;;;5059879;28;20683;-63
2022/07/28 09:27:44;;;;;;;3.47;1.70;;;23.90;99.90;;;;;;5064101;28;20208;-63
2022/07/28 09:30:13;;;;;;;4.97;1.73;;;24.50;99.90;;;;;;5063483;28;20255;-63
2022/07/28 09:32:42;;;;;;;1.90;1.80;;;25.20;99.90;;;;;;5057040;28;20201;-63
2022/07/28 09:35:19;;;;;;;2.35;1.60;;;26.20;99.90;;;;;;5066405;28;20226;-62
2022/07/28 09:37:59;;;;;;;4.38;1.50;;;27.10;99.90;;;;;;5064569;28;20186;-63
2022/07/28 09:40:27;;;;;;;4.05;1.50;;;27.70;99.90;;;;;;5061117;28;20192;-63
2022/07/28 09:42:57;;;;;;;4.75;1.45;;;28.10;99.90;;;;;;5059571;28;20290;-63
2022/07/28 09:45:28;;;;;;;3.05;1.60;;;27.90;99.90;;;;;;5066292;28;20204;-63
2022/07/28 09:48:12;;;;;;;4.60;1.75;;;27.50;99.90;;;;;;5055735;28;20207;-63
2022/07/28 09:50:44;;;;;;;5.78;1.80;;;27.80;99.90;;;;;;5068064;28;20289;-63
2022/07/28 09:53:26;;;;;;;10.32;2.00;;;28.20;99.90;;;;;;5070364;28;20998;-63
2022/07/28 09:55:57;;;;;;;1.92;1.50;;;27.50;99.90;;;;;;5068762;28;20290;-63
2022/07/28 09:58:26;;;;;;;3.85;1.58;;;26.80;99.90;;;;;;5064646;28;20291;-63
2022/07/28 10:01:06;;;;;;;1.85;1.50;;;26.90;99.90;;;;;;5063320;28;20291;-63
2022/07/28 10:03:36;;;;;;;2.55;1.63;;;27.60;99.90;;;;;;5056939;28;20228;-63
2022/07/28 10:06:08;;;;;;;4.72;1.60;;;27.70;99.90;;;;;;5064222;28;20563;-63
2022/07/28 10:08:41;;;;;;;3.42;1.50;;;28.10;99.90;;;;;;5059036;28;20263;-63
2022/07/28 10:11:10;;;;;;;3.40;1.50;;;27.60;99.90;;;;;;5067325;28;20570;-63
2022/07/28 10:14:01;;;;;;;3.72;1.65;;;27.20;99.90;;;;;;5091994;28;20612;-63
2022/07/28 10:16:33;;;;;;;1.48;1.38;;;27.10;99.90;;;;;;5065267;28;20556;-63
2022/07/28 10:19:03;;;;;;;2.60;1.42;;;27.20;99.90;;;;;;5070481;28;20188;-63
2022/07/28 10:21:35;;;;;;;3.83;1.40;;;27.20;99.90;;;;;;5061871;28;20279;-63
2022/07/28 10:24:06;;;;;;;2.28;1.45;;;26.90;99.90;;;;;;5081608;28;20202;-63
2022/07/28 10:26:42;;;;;;;2.50;1.67;;;26.70;99.90;;;;;;5070888;28;20226;-62
2022/07/28 10:29:14;;;;;;;4.25;1.48;;;26.80;99.90;;;;;;5076601;28;20294;-63
2022/07/28 10:31:50;;;;;;;4.18;1.90;;;26.60;99.90;;;;;;5068420;28;20529;-63
2022/07/28 10:34:22;;;;;;;3.28;1.65;;;26.60;99.90;;;;;;5064243;28;20185;-63
2022/07/28 10:36:55;;;;;;;2.07;1.73;;;26.80;99.90;;;;;;5060614;28;20219;-63
2022/07/28 10:39:28;;;;;;;4.30;1.90;;;26.20;99.90;;;;;;5062854;28;20204;-62
2022/07/28 10:41:57;;;;;;;3.90;1.80;;;25.70;99.90;;;;;;5063601;28;20712;-63
2022/07/28 10:44:26;;;;;;;2.70;1.97;;;25.30;99.90;;;;;;5058145;28;20262;-63
2022/07/28 10:46:57;;;;;;;1.87;1.70;;;25.20;99.90;;;;;;5066964;28;20661;-63
2022/07/28 10:49:28;;;;;;;4.17;1.90;;;25.20;99.90;;;;;;5062581;28;20247;-63
2022/07/28 10:52:00;;;;;;;4.97;1.70;;;25.30;99.90;;;;;;5058039;28;20200;-62
2022/07/28 10:54:48;;;;;;;3.73;1.90;;;25.10;99.90;;;;;;5062843;28;20231;-63
2022/07/28 10:57:24;;;;;;;4.97;1.80;;;25.00;99.90;;;;;;5069684;28;20202;-62
2022/07/28 11:00:04;;;;;;;2.27;1.70;;;24.80;99.90;;;;;;5059248;28;20192;-62
2022/07/28 11:02:50;;;;;;;2.10;1.80;;;24.80;99.90;;;;;;5061376;28;20225;-63
2022/07/28 11:05:30;;;;;;;3.97;1.93;;;24.70;99.90;;;;;;5061981;28;20192;-62
2022/07/28 11:08:01;;;;;;;2.20;1.90;;;24.40;99.90;;;;;;5065901;28;20296;-63
2022/07/28 11:10:42;;;;;;;2.03;1.67;;;24.30;99.90;;;;;;5065490;28;20211;-62
2022/07/28 11:13:23;;;;;;;2.97;1.80;;;24.20;99.90;;;;;;5077526;28;20192;-62
2022/07/28 11:15:57;;;;;;;4.13;1.93;;;24.20;99.90;;;;;;5059324;28;20199;-62
2022/07/28 11:18:29;;;;;;;1.90;1.70;;;24.20;99.90;;;;;;5067739;28;20584;-62
2022/07/28 11:21:09;;;;;;;1.80;1.70;;;24.20;99.90;;;;;;5064715;28;20200;-62
2022/07/28 11:23:46;;;;;;;2.13;1.80;;;24.20;99.90;;;;;;5073701;28;20258;-62
2022/07/28 11:26:44;;;;;;;4.57;1.60;;;24.40;99.90;;;;;;5071514;28;20201;-62
2022/07/28 11:29:22;;;;;;;3.53;1.70;;;24.70;99.90;;;;;;5047272;28;20593;-62
2022/07/28 11:32:05;;;;;;;7.17;1.87;;;24.80;99.90;;;;;;5062028;28;20199;-62
2022/07/28 11:35:07;;;;;;;2.20;2.00;;;24.80;99.90;;;;;;5064823;28;20201;-60
2022/07/28 11:38:21;;;;;;;5.13;2.20;;;24.80;99.90;;;;;;5068851;28;20582;-62
2022/07/28 11:40:51;;;;;;;2.83;2.00;;;25.00;99.90;;;;;;5057321;28;20657;-61
2022/07/28 11:43:33;;;;;;;4.13;2.13;;;25.10;99.90;;;;;;5062377;28;20305;-61
2022/07/28 11:46:36;;;;;;;3.77;1.83;;;25.10;99.90;;;;;;5061965;28;20203;-61
2022/07/28 11:49:29;;;;;;;2.30;1.50;;;25.20;99.90;;;;;;5065873;28;20207;-61
2022/07/28 11:52:11;;;;;;;4.67;2.10;;;25.70;99.90;;;;;;5066298;28;20200;-61
2022/07/28 11:54:42;;;;;;;2.00;1.90;;;26.20;99.90;;;;;;5068603;28;20195;-61
2022/07/28 11:57:11;;;;;;;6.27;1.53;;;26.70;99.90;;;;;;5064311;28;20204;-61
2022/07/28 11:59:42;;;;;;;4.33;2.13;;;27.10;99.90;;;;;;5061305;28;20600;-61
2022/07/28 12:02:23;;;;;;;3.37;1.80;;;27.20;99.90;;;;;;5061814;28;21052;-61
2022/07/28 12:05:06;;;;;;;4.80;1.87;;;27.10;99.90;;;;;;5066321;28;20668;-61
2022/07/28 12:07:41;;;;;;;2.90;2.00;;;26.80;99.90;;;;;;5054290;28;20700;-61
2022/07/28 12:10:39;;;;;;;2.23;2.03;;;26.50;99.90;;;;;;5061178;28;20223;-60
2022/07/28 12:13:27;;;;;;;5.73;1.93;;;26.00;99.90;;;;;;5061261;28;20674;-61
2022/07/28 12:15:56;;;;;;;5.10;1.80;;;26.30;99.90;;;;;;5062968;28;20200;-63
2022/07/28 12:18:24;;;;;;;4.73;1.93;;;26.70;99.90;;;;;;5063310;28;20189;-61
2022/07/28 12:20:53;;;;;;;1.83;1.73;;;26.50;99.90;;;;;;5060180;28;20779;-58
2022/07/28 12:23:32;;;;;;;5.63;2.40;;;26.60;99.90;;;;;;5069261;28;20222;-59
2022/07/28 12:26:12;;;;;;;2.20;2.00;;;26.50;99.90;;;;;;5061735;28;20207;-61
2022/07/28 12:28:50;;;;;;;6.40;2.00;;;26.60;99.90;;;;;;5059590;28;20196;-61
2022/07/28 12:31:18;;;;;;;5.60;2.30;;;26.50;99.90;;;;;;5071138;28;20220;-61
2022/07/28 12:33:51;;;;;;;1.70;1.60;;;25.80;99.90;;;;;;5066707;28;20201;-61
2022/07/28 12:36:22;;;;;;;4.60;1.90;;;25.80;99.90;;;;;;5054145;28;20205;-61
2022/07/28 12:38:53;;;;;;;2.47;1.57;;;25.80;99.90;;;;;;5063112;28;20188;-62
2022/07/28 12:41:22;;;;;;;3.30;1.97;;;25.80;99.90;;;;;;5064890;28;20198;-61
2022/07/28 12:43:51;;;;;;;3.37;1.93;;;25.80;99.90;;;;;;5063568;28;20579;-61
2022/07/28 12:46:21;;;;;;;4.47;1.90;;;25.80;99.90;;;;;;5074632;28;20245;-62
2022/07/28 12:48:54;;;;;;;5.40;2.00;;;25.90;99.90;;;;;;5062451;28;20196;-62
2022/07/28 12:51:33;;;;;;;2.60;1.87;;;26.00;99.90;;;;;;5057776;28;20213;-62
2022/07/28 12:54:04;;;;;;;5.73;2.07;;;25.80;99.90;;;;;;5063774;28;20302;-62
2022/07/28 12:56:44;;;;;;;3.73;1.77;;;25.90;99.90;;;;;;5072112;28;20192;-62
2022/07/28 12:59:13;;;;;;;4.53;1.70;;;25.50;99.90;;;;;;5059622;28;20626;-61
2022/07/28 13:01:46;;;;;;;2.03;1.70;;;25.70;99.90;;;;;;5069422;28;20585;-61
2022/07/28 13:04:14;;;;;;;6.57;2.23;;;25.90;99.90;;;;;;5063276;28;20600;-61
2022/07/28 13:06:55;;;;;;;2.10;1.80;;;26.20;99.90;;;;;;5065823;28;20238;-61
2022/07/28 13:09:24;;;;;;;3.67;1.80;;;26.20;99.90;;;;;;5068529;28;20282;-62
2022/07/28 13:12:02;;;;;;;3.67;2.00;;;26.40;99.90;;;;;;5068901;28;20297;-62
2022/07/28 13:14:40;;;;;;;10.60;2.00;;;26.40;99.90;;;;;;5063935;28;20201;-62
2022/07/28 13:17:09;;;;;;;2.17;1.50;;;26.70;99.90;;;;;;5075265;28;20216;-62